sensor_id;sensor_type;location;lat;lon;timestamp;pressure;altitude;pressure_sealevel;temperature;humidity
10510;BME280;5303;53.266;10.410;2022-09-09T00:02:20;100640.53;;;15.64;100.00
10510;BME280;5303;53.266;10.410;2022-09-09T00:05:12;100646.03;;;15.57;100.00
10510;BME280;5303;53.266;10.410;2022-09-09T00:07:52;100638.00;;;15.62;100.00
10510;BME280;5303;53.266;10.410;2022-09-09T00:10:29;100638.00;;;15.62;100.00
10510;BME280;5303;53.266;10.410;2022-09-09T00:13:31;100633.13;;;15.64;100.00
10510;BME280;5303;53.266;10.410;2022-09-09T00:16:04;100635.03;;;15.64;100.00
10510;BME280;5303;53.266;10.410;2022-09-09T00:21:23;100627.03;;;15.69;100.00
10510;BME280;5303;53.266;10.410;2022-09-09T00:23:55;100626.19;;;15.68;100.00
10510;BME280;5303;53.266;10.410;2022-09-09T00:26:31;100631.69;;;15.75;100.00
10510;BME280;5303;53.266;10.410;2022-09-09T00:29:28;100630.84;;;15.68;100.00
10510;BME280;5303;53.266;10.410;2022-09-09T00:32:07;100619.19;;;15.66;100.00
10510;BME280;5303;53.266;10.410;2022-09-09T00:34:36;100627.66;;;15.64;100.00
10510;BME280;5303;53.266;10.410;2022-09-09T00:37:05;100634.66;;;15.67;100.00
10510;BME280;5303;53.266;10.410;2022-09-09T00:39:37;100622.34;;;15.63;100.00
10510;BME280;5303;53.266;10.410;2022-09-09T00:45:42;100621.09;;;15.58;100.00
10510;BME280;5303;53.266;10.410;2022-09-09T00:47:49;100626.59;;;15.52;100.00
10510;BME280;5303;53.266;10.410;2022-09-09T00:53:24;100616.88;;;15.49;100.00
10510;BME280;5303;53.266;10.410;2022-09-09T00:58:30;100626.16;;;15.42;100.00
10510;BME280;5303;53.266;10.410;2022-09-09T01:03:35;100623.00;;;15.38;100.00
10510;BME280;5303;53.266;10.410;2022-09-09T01:11:25;100614.34;;;15.48;100.00
10510;BME280;5303;53.266;10.410;2022-09-09T01:16:35;100615.59;;;15.52;100.00
10510;BME280;5303;53.266;10.410;2022-09-09T01:19:02;100618.53;;;15.44;100.00
10510;BME280;5303;53.266;10.410;2022-09-09T01:21:50;100625.50;;;15.46;100.00
10510;BME280;5303;53.266;10.410;2022-09-09T01:24:40;100615.19;;;15.42;100.00
10510;BME280;5303;53.266;10.410;2022-09-09T01:27:07;100614.34;;;15.41;100.00
10510;BME280;5303;53.266;10.410;2022-09-09T01:29:35;100616.44;;;15.39;100.00
10510;BME280;5303;53.266;10.410;2022-09-09T01:32:35;100619.59;;;15.36;100.00
10510;BME280;5303;53.266;10.410;2022-09-09T01:34:49;100619.81;;;15.34;100.00
10510;BME280;5303;53.266;10.410;2022-09-09T01:37:15;100611.59;;;15.34;100.00
10510;BME280;5303;53.266;10.410;2022-09-09T01:39:42;100609.69;;;15.28;100.00
10510;BME280;5303;53.266;10.410;2022-09-09T01:42:10;100606.94;;;15.28;100.00
10510;BME280;5303;53.266;10.410;2022-09-09T01:44:38;100613.25;;;15.22;100.00
10510;BME280;5303;53.266;10.410;2022-09-09T01:47:03;100608.38;;;15.24;100.00
10510;BME280;5303;53.266;10.410;2022-09-09T01:49:29;100615.38;;;15.27;100.00
10510;BME280;5303;53.266;10.410;2022-09-09T01:51:56;100616.19;;;15.21;100.00
10510;BME280;5303;53.266;10.410;2022-09-09T01:54:26;100618.75;;;15.22;100.00
10510;BME280;5303;53.266;10.410;2022-09-09T02:04:58;100622.94;;;15.18;100.00
10510;BME280;5303;53.266;10.410;2022-09-09T02:07:40;100620.63;;;15.15;100.00
10510;BME280;5303;53.266;10.410;2022-09-09T02:10:11;100617.44;;;15.11;100.00
10510;BME280;5303;53.266;10.410;2022-09-09T02:12:40;100615.34;;;15.13;100.00
10510;BME280;5303;53.266;10.410;2022-09-09T02:15:14;100620.81;;;15.07;100.00
10510;BME280;5303;53.266;10.410;2022-09-09T02:17:42;100617.25;;;15.06;100.00
10510;BME280;5303;53.266;10.410;2022-09-09T02:20:11;100618.50;;;15.10;100.00
10510;BME280;5303;53.266;10.410;2022-09-09T02:22:39;100624.41;;;15.07;100.00
10510;BME280;5303;53.266;10.410;2022-09-09T02:25:08;100620.41;;;15.03;100.00
10510;BME280;5303;53.266;10.410;2022-09-09T02:27:34;100618.91;;;15.01;100.00
10510;BME280;5303;53.266;10.410;2022-09-09T02:30:01;100614.25;;;15.01;100.00
10510;BME280;5303;53.266;10.410;2022-09-09T02:32:28;100614.25;;;15.01;100.00
10510;BME280;5303;53.266;10.410;2022-09-09T02:35:03;100608.34;;;14.98;100.00
10510;BME280;5303;53.266;10.410;2022-09-09T02:37:39;100607.69;;;14.96;100.00
10510;BME280;5303;53.266;10.410;2022-09-09T02:40:06;100612.97;;;14.90;100.00
10510;BME280;5303;53.266;10.410;2022-09-09T02:42:39;100614.66;;;14.91;100.00
10510;BME280;5303;53.266;10.410;2022-09-09T02:45:05;100618.66;;;14.89;100.00
10510;BME280;5303;53.266;10.410;2022-09-09T02:47:37;100615.91;;;14.89;100.00
10510;BME280;5303;53.266;10.410;2022-09-09T02:52:54;100611.72;;;14.86;100.00
10510;BME280;5303;53.266;10.410;2022-09-09T02:55:34;100615.06;;;14.88;100.00
10510;BME280;5303;53.266;10.410;2022-09-09T02:58:05;100621.41;;;14.89;100.00
10510;BME280;5303;53.266;10.410;2022-09-09T03:00:32;100618.22;;;14.85;100.00
10510;BME280;5303;53.266;10.410;2022-09-09T03:02:58;100615.28;;;14.80;100.00
10510;BME280;5303;53.266;10.410;2022-09-09T03:05:24;100614.63;;;14.78;100.00
10510;BME280;5303;53.266;10.410;2022-09-09T03:07:49;100608.31;;;14.78;100.00
10510;BME280;5303;53.266;10.410;2022-09-09T03:10:15;100618.03;;;14.80;100.00
10510;BME280;5303;53.266;10.410;2022-09-09T03:12:41;100616.97;;;14.81;100.00
10510;BME280;5303;53.266;10.410;2022-09-09T03:15:07;100615.47;;;14.79;100.00
10510;BME280;5303;53.266;10.410;2022-09-09T03:17:32;100620.53;;;14.75;100.00
10510;BME280;5303;53.266;10.410;2022-09-09T03:19:58;100623.91;;;14.71;100.00
10510;BME280;5303;53.266;10.410;2022-09-09T03:22:24;100623.91;;;14.71;100.00
10510;BME280;5303;53.266;10.410;2022-09-09T03:24:50;100625.75;;;14.70;100.00
10510;BME280;5303;53.266;10.410;2022-09-09T03:27:16;100630.66;;;14.75;100.00
10510;BME280;5303;53.266;10.410;2022-09-09T03:29:41;100631.06;;;14.72;100.00
10510;BME280;5303;53.266;10.410;2022-09-09T03:32:06;100624.50;;;14.73;100.00
10510;BME280;5303;53.266;10.410;2022-09-09T03:34:33;100629.56;;;14.69;100.00
10510;BME280;5303;53.266;10.410;2022-09-09T03:36:58;100630.22;;;14.71;100.00
10510;BME280;5303;53.266;10.410;2022-09-09T03:39:23;100628.94;;;14.67;100.00
10510;BME280;5303;53.266;10.410;2022-09-09T03:41:49;100633.78;;;14.65;100.00
10510;BME280;5303;53.266;10.410;2022-09-09T03:44:14;100632.28;;;14.62;100.00
10510;BME280;5303;53.266;10.410;2022-09-09T03:46:40;100633.38;;;14.68;100.00
10510;BME280;5303;53.266;10.410;2022-09-09T03:49:05;100634.44;;;14.67;100.00
10510;BME280;5303;53.266;10.410;2022-09-09T03:51:30;100637.78;;;14.69;100.00
10510;BME280;5303;53.266;10.410;2022-09-09T03:53:56;100640.34;;;14.71;100.00
10510;BME280;5303;53.266;10.410;2022-09-09T03:56:23;100636.94;;;14.68;100.00
10510;BME280;5303;53.266;10.410;2022-09-09T03:58:48;100639.03;;;14.66;100.00
10510;BME280;5303;53.266;10.410;2022-09-09T04:01:14;100642.44;;;14.68;100.00
10510;BME280;5303;53.266;10.410;2022-09-09T04:03:40;100639.03;;;14.66;100.00
10510;BME280;5303;53.266;10.410;2022-09-09T04:06:09;100627.88;;;14.68;100.00
10510;BME280;5303;53.266;10.410;2022-09-09T04:08:35;100638.19;;;14.66;100.00
10510;BME280;5303;53.266;10.410;2022-09-09T04:11:02;100629.97;;;14.66;100.00
10510;BME280;5303;53.266;10.410;2022-09-09T04:13:34;100636.50;;;14.65;100.00
10510;BME280;5303;53.266;10.410;2022-09-09T04:16:01;100637.31;;;14.59;100.00
10510;BME280;5303;53.266;10.410;2022-09-09T04:18:27;100641.78;;;14.66;100.00
10510;BME280;5303;53.266;10.410;2022-09-09T04:20:53;100638.63;;;14.70;100.00
10510;BME280;5303;53.266;10.410;2022-09-09T04:23:20;100648.78;;;14.76;100.00
10510;BME280;5303;53.266;10.410;2022-09-09T04:25:46;100646.47;;;14.79;100.00
10510;BME280;5303;53.266;10.410;2022-09-09T04:28:13;100646.50;;;14.86;100.00
10510;BME280;5303;53.266;10.410;2022-09-09T04:30:39;100646.72;;;14.91;100.00
10510;BME280;5303;53.266;10.410;2022-09-09T04:33:05;100642.31;;;14.97;100.00
10510;BME280;5303;53.266;10.410;2022-09-09T04:35:31;100655.19;;;14.96;100.00
10510;BME280;5303;53.266;10.410;2022-09-09T04:37:56;100648.66;;;14.97;100.00
10510;BME280;5303;53.266;10.410;2022-09-09T04:40:21;100646.56;;;14.99;100.00
10510;BME280;5303;53.266;10.410;2022-09-09T04:42:47;100644.25;;;15.03;100.00
10510;BME280;5303;53.266;10.410;2022-09-09T04:45:15;100642.75;;;15.00;100.00
10510;BME280;5303;53.266;10.410;2022-09-09T04:47:40;100640.69;;;15.09;100.00
10510;BME280;5303;53.266;10.410;2022-09-09T04:50:07;100642.13;;;15.05;100.00
10510;BME280;5303;53.266;10.410;2022-09-09T04:52:36;100650.78;;;15.08;100.00
10510;BME280;5303;53.266;10.410;2022-09-09T04:55:02;100650.16;;;15.06;100.00
10510;BME280;5303;53.266;10.410;2022-09-09T04:57:28;100655.22;;;15.03;100.00
10510;BME280;5303;53.266;10.410;2022-09-09T04:59:54;100647.00;;;15.03;100.00
10510;BME280;5303;53.266;10.410;2022-09-09T05:02:19;100661.13;;;15.06;100.00
10510;BME280;5303;53.266;10.410;2022-09-09T05:04:44;100655.41;;;15.08;100.00
10510;BME280;5303;53.266;10.410;2022-09-09T05:07:09;100654.81;;;15.06;100.00
10510;BME280;5303;53.266;10.410;2022-09-09T05:09:35;100651.66;;;15.09;100.00
10510;BME280;5303;53.266;10.410;2022-09-09T05:12:00;100657.34;;;15.14;100.00
10510;BME280;5303;53.266;10.410;2022-09-09T05:14:27;100668.13;;;15.16;100.00
10510;BME280;5303;53.266;10.410;2022-09-09T05:16:52;100662.63;;;15.16;100.00
10510;BME280;5303;53.266;10.410;2022-09-09T05:19:18;100656.31;;;15.22;100.00
10510;BME280;5303;53.266;10.410;2022-09-09T05:21:44;100659.91;;;15.22;100.00
10510;BME280;5303;53.266;10.410;2022-09-09T05:24:10;100666.22;;;15.16;100.00
10510;BME280;5303;53.266;10.410;2022-09-09T05:26:36;100667.50;;;15.20;100.00
10510;BME280;5303;53.266;10.410;2022-09-09T05:29:01;100671.50;;;15.18;100.00
10510;BME280;5303;53.266;10.410;2022-09-09T05:31:26;100660.31;;;15.19;100.00
10510;BME280;5303;53.266;10.410;2022-09-09T05:33:53;100662.44;;;15.24;100.00
10510;BME280;5303;53.266;10.410;2022-09-09T05:36:20;100669.66;;;15.31;100.00
10510;BME280;5303;53.266;10.410;2022-09-09T05:38:47;100663.28;;;15.24;100.00
10510;BME280;5303;53.266;10.410;2022-09-09T05:41:13;100674.69;;;15.28;100.00
10510;BME280;5303;53.266;10.410;2022-09-09T05:43:43;100679.53;;;15.26;100.00
10510;BME280;5303;53.266;10.410;2022-09-09T05:46:23;100679.72;;;15.24;100.00
10510;BME280;5303;53.266;10.410;2022-09-09T05:48:49;100684.41;;;15.30;100.00
10510;BME280;5303;53.266;10.410;2022-09-09T05:51:21;100691.38;;;15.33;100.00
10510;BME280;5303;53.266;10.410;2022-09-09T05:53:47;100689.06;;;15.36;100.00
10510;BME280;5303;53.266;10.410;2022-09-09T05:56:21;100690.31;;;15.41;100.00
10510;BME280;5303;53.266;10.410;2022-09-09T05:58:48;100688.66;;;15.40;100.00
10510;BME280;5303;53.266;10.410;2022-09-09T06:01:17;100691.38;;;15.40;100.00
10510;BME280;5303;53.266;10.410;2022-09-09T06:03:44;100687.38;;;15.42;100.00
10510;BME280;5303;53.266;10.410;2022-09-09T06:06:12;100695.81;;;15.41;100.00
10510;BME280;5303;53.266;10.410;2022-09-09T06:08:39;100698.78;;;15.46;100.00
10510;BME280;5303;53.266;10.410;2022-09-09T06:11:14;100700.06;;;15.50;100.00
10510;BME280;5303;53.266;10.410;2022-09-09T06:13:40;100704.94;;;15.54;100.00
10510;BME280;5303;53.266;10.410;2022-09-09T06:16:08;100703.69;;;15.57;100.00
10510;BME280;5303;53.266;10.410;2022-09-09T06:18:33;100702.81;;;15.63;100.00
10510;BME280;5303;53.266;10.410;2022-09-09T06:21:01;100706.63;;;15.62;100.00
10510;BME280;5303;53.266;10.410;2022-09-09T06:23:27;100705.38;;;15.65;100.00
10510;BME280;5303;53.266;10.410;2022-09-09T06:26:13;100708.81;;;15.73;100.00
10510;BME280;5303;53.266;10.410;2022-09-09T06:28:39;100708.81;;;15.73;100.00
10510;BME280;5303;53.266;10.410;2022-09-09T06:31:10;100705.63;;;15.76;100.00
10510;BME280;5303;53.266;10.410;2022-09-09T06:33:41;100704.34;;;15.72;100.00
10510;BME280;5303;53.266;10.410;2022-09-09T06:36:14;100711.97;;;15.77;100.00
10510;BME280;5303;53.266;10.410;2022-09-09T06:38:43;100706.91;;;15.80;100.00
10510;BME280;5303;53.266;10.410;2022-09-09T06:41:11;100709.41;;;15.82;100.00
10510;BME280;5303;53.266;10.410;2022-09-09T06:43:37;100717.88;;;15.94;100.00
10510;BME280;5303;53.266;10.410;2022-09-09T06:46:05;100717.88;;;16.00;100.00
10510;BME280;5303;53.266;10.410;2022-09-09T06:48:31;100726.97;;;16.07;100.00
10510;BME280;5303;53.266;10.410;2022-09-09T06:51:06;100719.13;;;16.11;100.00
10510;BME280;5303;53.266;10.410;2022-09-09T06:53:33;100715.34;;;16.05;100.00
10510;BME280;5303;53.266;10.410;2022-09-09T06:56:29;100717.69;;;16.09;100.00
10510;BME280;5303;53.266;10.410;2022-09-09T06:58:57;100720.63;;;16.14;100.00
10510;BME280;5303;53.266;10.410;2022-09-09T07:01:25;100716.59;;;16.16;100.00
10510;BME280;5303;53.266;10.410;2022-09-09T07:03:53;100723.38;;;16.20;100.00
10510;BME280;5303;53.266;10.410;2022-09-09T07:06:22;100711.75;;;16.25;100.00
10510;BME280;5303;53.266;10.410;2022-09-09T07:08:53;100718.06;;;16.32;100.00
10510;BME280;5303;53.266;10.410;2022-09-09T07:11:20;100722.50;;;16.40;100.00
10510;BME280;5303;53.266;10.410;2022-09-09T07:13:47;100714.03;;;16.48;100.00
10510;BME280;5303;53.266;10.410;2022-09-09T07:16:18;100722.47;;;16.66;100.00
10510;BME280;5303;53.266;10.410;2022-09-09T07:18:44;100718.22;;;16.77;100.00
10510;BME280;5303;53.266;10.410;2022-09-09T07:21:10;100724.34;;;16.86;100.00
10510;BME280;5303;53.266;10.410;2022-09-09T07:23:40;100721.72;;;16.97;100.00
10510;BME280;5303;53.266;10.410;2022-09-09T07:26:14;100713.84;;;17.08;100.00
10510;BME280;5303;53.266;10.410;2022-09-09T07:28:41;100713.41;;;17.11;100.00
10510;BME280;5303;53.266;10.410;2022-09-09T07:31:12;100710.19;;;17.20;100.00
10510;BME280;5303;53.266;10.410;2022-09-09T07:33:39;100715.84;;;17.32;100.00
10510;BME280;5303;53.266;10.410;2022-09-09T07:36:08;100710.50;;;17.44;100.00
10510;BME280;5303;53.266;10.410;2022-09-09T07:38:41;100714.72;;;17.46;100.00
10510;BME280;5303;53.266;10.410;2022-09-09T07:41:10;100715.97;;;17.51;100.00
10510;BME280;5303;53.266;10.410;2022-09-09T07:43:39;100718.47;;;17.52;100.00
10510;BME280;5303;53.266;10.410;2022-09-09T07:46:05;100713.78;;;17.59;100.00
10510;BME280;5303;53.266;10.410;2022-09-09T07:48:31;100724.94;;;17.71;100.00
10510;BME280;5303;53.266;10.410;2022-09-09T07:51:09;100725.09;;;17.83;100.00
10510;BME280;5303;53.266;10.410;2022-09-09T07:53:35;100718.25;;;17.92;100.00
10510;BME280;5303;53.266;10.410;2022-09-09T07:56:10;100724.72;;;18.04;100.00
10510;BME280;5303;53.266;10.410;2022-09-09T07:58:37;100721.22;;;18.15;100.00
10510;BME280;5303;53.266;10.410;2022-09-09T08:03:44;100727.44;;;18.29;100.00
10510;BME280;5303;53.266;10.410;2022-09-09T08:06:10;100721.03;;;18.35;100.00
10510;BME280;5303;53.266;10.410;2022-09-09T08:08:37;100725.44;;;18.43;100.00
10510;BME280;5303;53.266;10.410;2022-09-09T08:11:11;100720.38;;;18.58;100.00
10510;BME280;5303;53.266;10.410;2022-09-09T08:13:38;100717.69;;;18.70;100.00
10510;BME280;5303;53.266;10.410;2022-09-09T08:16:14;100725.75;;;18.72;100.00
10510;BME280;5303;53.266;10.410;2022-09-09T08:18:40;100726.56;;;18.79;100.00
10510;BME280;5303;53.266;10.410;2022-09-09T08:23:39;100732.75;;;18.93;100.00
10510;BME280;5303;53.266;10.410;2022-09-09T08:26:11;100738.34;;;19.04;100.00
10510;BME280;5303;53.266;10.410;2022-09-09T08:28:37;100733.59;;;19.12;100.00
10510;BME280;5303;53.266;10.410;2022-09-09T08:31:09;100733.97;;;19.15;100.00
10510;BME280;5303;53.266;10.410;2022-09-09T08:33:35;100732.41;;;19.19;100.00
10510;BME280;5303;53.266;10.410;2022-09-09T08:36:03;100737.34;;;19.17;100.00
10510;BME280;5303;53.266;10.410;2022-09-09T08:38:29;100739.84;;;19.19;100.00
10510;BME280;5303;53.266;10.410;2022-09-09T08:40:58;100735.72;;;19.28;100.00
10510;BME280;5303;53.266;10.410;2022-09-09T08:43:29;100741.47;;;19.26;100.00
10510;BME280;5303;53.266;10.410;2022-09-09T08:46:02;100739.09;;;19.30;100.00
10510;BME280;5303;53.266;10.410;2022-09-09T08:51:36;100742.19;;;19.52;100.00
10510;BME280;5303;53.266;10.410;2022-09-09T08:54:02;100737.16;;;19.61;100.00
10510;BME280;5303;53.266;10.410;2022-09-09T08:56:31;100751.28;;;19.71;100.00
10510;BME280;5303;53.266;10.410;2022-09-09T08:58:59;100741.94;;;19.84;100.00
10510;BME280;5303;53.266;10.410;2022-09-09T09:01:42;100745.31;;;19.86;100.00
10510;BME280;5303;53.266;10.410;2022-09-09T09:12:26;100745.13;;;20.11;100.00
10510;BME280;5303;53.266;10.410;2022-09-09T09:14:52;100739.47;;;20.06;100.00
10510;BME280;5303;53.266;10.410;2022-09-09T09:17:21;100752.44;;;20.05;100.00
10510;BME280;5303;53.266;10.410;2022-09-09T09:19:49;100748.84;;;20.05;100.00
10510;BME280;5303;53.266;10.410;2022-09-09T09:22:47;100741.75;;;20.09;100.00
10510;BME280;5303;53.266;10.410;2022-09-09T09:25:24;100744.66;;;20.14;100.00
10510;BME280;5303;53.266;10.410;2022-09-09T09:30:29;100737.56;;;20.18;100.00
10510;BME280;5303;53.266;10.410;2022-09-09T09:33:50;100740.09;;;20.19;100.00
10510;BME280;5303;53.266;10.410;2022-09-09T09:35:50;100747.06;;;20.10;100.00
10510;BME280;5303;53.266;10.410;2022-09-09T09:38:18;100736.69;;;20.06;100.00
10510;BME280;5303;53.266;10.410;2022-09-09T09:40:53;100739.59;;;20.11;100.00
10510;BME280;5303;53.266;10.410;2022-09-09T09:43:34;100743.81;;;20.13;100.00
10510;BME280;5303;53.266;10.410;2022-09-09T09:46:00;100744.31;;;20.10;100.00
10510;BME280;5303;53.266;10.410;2022-09-09T09:48:28;100740.78;;;20.03;100.00
10510;BME280;5303;53.266;10.410;2022-09-09T09:50:59;100743.31;;;20.05;100.00
10510;BME280;5303;53.266;10.410;2022-09-09T09:53:30;100742.97;;;20.01;100.00
10510;BME280;5303;53.266;10.410;2022-09-09T09:56:05;100746.09;;;20.05;100.00
10510;BME280;5303;53.266;10.410;2022-09-09T10:01:27;100736.94;;;20.16;100.00
10510;BME280;5303;53.266;10.410;2022-09-09T10:04:16;100737.94;;;20.21;100.00
10510;BME280;5303;53.266;10.410;2022-09-09T10:06:42;100731.91;;;20.24;100.00
10510;BME280;5303;53.266;10.410;2022-09-09T10:09:25;100732.28;;;20.28;100.00
10510;BME280;5303;53.266;10.410;2022-09-09T10:14:53;100730.00;;;20.48;100.00
10510;BME280;5303;53.266;10.410;2022-09-09T10:17:32;100741.56;;;20.45;100.00
10510;BME280;5303;53.266;10.410;2022-09-09T10:22:35;100729.78;;;20.62;100.00
10510;BME280;5303;53.266;10.410;2022-09-09T10:30:19;100725.78;;;20.81;100.00
10510;BME280;5303;53.266;10.410;2022-09-09T10:32:56;100729.63;;;20.92;100.00
10510;BME280;5303;53.266;10.410;2022-09-09T10:35:36;100727.28;;;21.12;100.00
10510;BME280;5303;53.266;10.410;2022-09-09T10:41:14;100724.66;;;21.46;100.00
10510;BME280;5303;53.266;10.410;2022-09-09T10:49:22;100707.34;;;21.84;100.00
10510;BME280;5303;53.266;10.410;2022-09-09T10:55:14;100711.78;;;21.85;100.00
10510;BME280;5303;53.266;10.410;2022-09-09T10:57:53;100703.41;;;21.97;100.00
10510;BME280;5303;53.266;10.410;2022-09-09T11:02:56;100705.59;;;22.12;100.00
10510;BME280;5303;53.266;10.410;2022-09-09T11:07:56;100698.94;;;22.13;100.00
10510;BME280;5303;53.266;10.410;2022-09-09T11:10:28;100695.25;;;22.07;100.00
10510;BME280;5303;53.266;10.410;2022-09-09T11:12:59;100688.75;;;21.85;100.00
10510;BME280;5303;53.266;10.410;2022-09-09T11:15:39;100687.31;;;21.82;100.00
10510;BME280;5303;53.266;10.410;2022-09-09T11:18:11;100694.31;;;21.68;100.00
10510;BME280;5303;53.266;10.410;2022-09-09T11:20:39;100698.25;;;21.72;100.00
10510;BME280;5303;53.266;10.410;2022-09-09T11:23:11;100704.28;;;21.69;100.00
10510;BME280;5303;53.266;10.410;2022-09-09T11:25:42;100710.66;;;21.70;100.00
10510;BME280;5303;53.266;10.410;2022-09-09T11:34:09;100705.09;;;21.53;100.00
10510;BME280;5303;53.266;10.410;2022-09-09T11:37:04;100708.78;;;21.42;100.00
10510;BME280;5303;53.266;10.410;2022-09-09T11:44:40;100718.34;;;21.22;100.00
10510;BME280;5303;53.266;10.410;2022-09-09T11:47:25;100726.50;;;20.88;100.00
10510;BME280;5303;53.266;10.410;2022-09-09T11:49:54;100736.13;;;20.27;100.00
10510;BME280;5303;53.266;10.410;2022-09-09T11:52:35;100743.06;;;19.94;100.00
10510;BME280;5303;53.266;10.410;2022-09-09T11:55:09;100778.00;;;34.33;100.00
10510;BME280;5303;53.266;10.410;2022-09-09T11:57:35;100702.03;;;36.00;47.01
10510;BME280;5303;53.266;10.410;2022-09-09T12:00:03;100698.59;;;36.15;44.54
10510;BME280;5303;53.266;10.410;2022-09-09T12:02:29;100706.22;;;36.48;42.63
10510;BME280;5303;53.266;10.410;2022-09-09T12:05:07;100707.16;;;36.86;41.58
10510;BME280;5303;53.266;10.410;2022-09-09T12:07:40;100699.16;;;35.88;42.52
10510;BME280;5303;53.266;10.410;2022-09-09T12:17:44;100689.63;;;35.72;41.42
10510;BME280;5303;53.266;10.410;2022-09-09T12:25:32;100681.34;;;36.21;39.26
10510;BME280;5303;53.266;10.410;2022-09-09T12:28:15;100692.19;;;36.52;39.80
10510;BME280;5303;53.266;10.410;2022-09-09T12:31:05;100691.41;;;37.13;38.58
10510;BME280;5303;53.266;10.410;2022-09-09T12:33:35;100686.53;;;37.38;37.88
10510;BME280;5303;53.266;10.410;2022-09-09T12:36:03;100692.66;;;37.64;38.05
10510;BME280;5303;53.266;10.410;2022-09-09T12:38:38;100697.84;;;38.03;37.36
10510;BME280;5303;53.266;10.410;2022-09-09T12:41:04;100693.75;;;38.16;36.83
10510;BME280;5303;53.266;10.410;2022-09-09T12:43:30;100691.06;;;38.07;37.37
10510;BME280;5303;53.266;10.410;2022-09-09T12:46:06;100675.97;;;38.19;37.49
10510;BME280;5303;53.266;10.410;2022-09-09T12:48:38;100675.22;;;38.22;37.09
10510;BME280;5303;53.266;10.410;2022-09-09T12:51:16;100664.41;;;38.12;36.79
10510;BME280;5303;53.266;10.410;2022-09-09T12:53:44;100658.34;;;37.85;36.54
10510;BME280;5303;53.266;10.410;2022-09-09T12:56:20;100646.81;;;37.94;36.17
10510;BME280;5303;53.266;10.410;2022-09-09T12:58:48;100657.66;;;37.76;36.46
10510;BME280;5303;53.266;10.410;2022-09-09T13:01:26;100647.50;;;37.91;36.62
10510;BME280;5303;53.266;10.410;2022-09-09T13:03:52;100646.19;;;38.01;36.69
10510;BME280;5303;53.266;10.410;2022-09-09T13:06:28;100660.31;;;37.97;36.83
10510;BME280;5303;53.266;10.410;2022-09-09T13:08:55;100659.78;;;37.79;35.60
10510;BME280;5303;53.266;10.410;2022-09-09T13:11:38;100664.44;;;37.19;37.39
10510;BME280;5303;53.266;10.410;2022-09-09T13:14:05;100666.56;;;38.03;36.55
10510;BME280;5303;53.266;10.410;2022-09-09T13:16:34;100666.66;;;38.50;36.22
10510;BME280;5303;53.266;10.410;2022-09-09T13:19:06;100672.47;;;37.17;36.45
10510;BME280;5303;53.266;10.410;2022-09-09T13:21:37;100681.34;;;37.80;34.41
10510;BME280;5303;53.266;10.410;2022-09-09T13:24:05;100689.72;;;38.17;34.85
10510;BME280;5303;53.266;10.410;2022-09-09T13:26:33;100692.69;;;38.20;34.59
10510;BME280;5303;53.266;10.410;2022-09-09T13:29:17;100694.97;;;37.74;33.52
10510;BME280;5303;53.266;10.410;2022-09-09T13:31:43;100697.75;;;37.59;34.43
10510;BME280;5303;53.266;10.410;2022-09-09T13:34:14;100694.75;;;37.67;34.13
10510;BME280;5303;53.266;10.410;2022-09-09T13:36:40;100692.34;;;37.53;34.29
10510;BME280;5303;53.266;10.410;2022-09-09T13:39:15;100690.44;;;37.45;34.35
10510;BME280;5303;53.266;10.410;2022-09-09T13:41:46;100702.16;;;37.44;34.42
10510;BME280;5303;53.266;10.410;2022-09-09T13:44:23;100711.72;;;37.39;34.60
10510;BME280;5303;53.266;10.410;2022-09-09T13:49:32;100708.69;;;37.32;34.95
10510;BME280;5303;53.266;10.410;2022-09-09T13:52:12;100710.97;;;37.02;35.13
10510;BME280;5303;53.266;10.410;2022-09-09T13:54:51;100706.81;;;37.12;35.26
10510;BME280;5303;53.266;10.410;2022-09-09T13:57:22;100710.94;;;37.26;34.50
10510;BME280;5303;53.266;10.410;2022-09-09T13:59:48;100698.28;;;37.12;34.85
10510;BME280;5303;53.266;10.410;2022-09-09T14:02:15;100698.03;;;37.17;34.76
10510;BME280;5303;53.266;10.410;2022-09-09T14:04:42;100699.00;;;37.09;34.99
10510;BME280;5303;53.266;10.410;2022-09-09T14:07:12;100702.16;;;36.25;35.14
10510;BME280;5303;53.266;10.410;2022-09-09T14:09:38;100697.69;;;35.40;35.62
10510;BME280;5303;53.266;10.410;2022-09-09T14:12:04;100679.81;;;35.90;35.11
10510;BME280;5303;53.266;10.410;2022-09-09T14:14:29;100675.28;;;35.89;33.95
10510;BME280;5303;53.266;10.410;2022-09-09T14:16:55;100695.72;;;36.03;34.30
10510;BME280;5303;53.266;10.410;2022-09-09T14:19:20;100699.50;;;35.65;34.41
10510;BME280;5303;53.266;10.410;2022-09-09T14:21:45;100700.72;;;35.35;34.96
10510;BME280;5303;53.266;10.410;2022-09-09T14:24:10;100700.31;;;35.45;34.38
10510;BME280;5303;53.266;10.410;2022-09-09T14:26:37;100700.59;;;35.52;34.17
10510;BME280;5303;53.266;10.410;2022-09-09T14:29:03;100693.22;;;35.81;33.81
10510;BME280;5303;53.266;10.410;2022-09-09T14:31:28;100697.25;;;35.59;34.26
10510;BME280;5303;53.266;10.410;2022-09-09T14:33:53;100691.31;;;35.22;33.96
10510;BME280;5303;53.266;10.410;2022-09-09T14:36:19;100694.75;;;35.28;33.94
10510;BME280;5303;53.266;10.410;2022-09-09T14:38:45;100704.53;;;35.39;34.29
10510;BME280;5303;53.266;10.410;2022-09-09T14:41:12;100701.75;;;35.30;34.14
10510;BME280;5303;53.266;10.410;2022-09-09T14:43:40;100693.47;;;35.25;34.81
10510;BME280;5303;53.266;10.410;2022-09-09T14:46:13;100699.97;;;35.46;34.65
10510;BME280;5303;53.266;10.410;2022-09-09T14:48:39;100700.78;;;35.47;34.60